Latest Weather Observations for Walgett

IDN60801

Issued at 8:32 am EDT Tuesday 17 January 2017 (issued every 30 minutes, with the page automatically refreshed every 10 minutes)

About weather observations | Map of weather stations | Latest weather observations for NSW | Other Formats
Station Details ID: 052088 Name: WALGETT AIRPORT AWS Lat: -30.04 Lon: 148.12 Height: 133.0 m
Data from the previous 72 hours. | See also: Recent months at Walgett
Date/Time
EDT
Temp
°C
App
Temp
°C
Dew
Point
°C
Rel
Hum
%
Delta-T
°C
Wind Press
QNH
hPa
Press
MSL
hPa
Rain since
9am
mm
Dir  Spd
km/h
Gust
km/h
Spd
kts
Gust
kts
17/08:30am 32.0 30.6 17.9 43 9.1 NNE 22 32 12 17 1014.7 1013.9 0.0
17/08:00am 30.9 29.1 16.9 43 8.9 NNE 22 32 12 17 1014.6 1013.8 0.0
17/07:30am 30.4 28.9 16.4 43 8.8 NNE 19 28 10 15 1014.2 1013.4 0.0
17/07:00am 29.4 28.6 16.2 44 8.2 NNE 15 20 8 11 1013.8 1013.0 0.0
17/06:30am 28.7 27.6 16.3 47 7.7 NNE 17 20 9 11 1013.4 1012.6 0.0
17/06:00am 29.1 28.0 16.3 46 8.0 NNE 17 22 9 12 1012.8 1012.0 0.0
17/05:30am 29.7 28.3 16.5 45 8.3 NNE 19 26 10 14 1012.4 1011.6 0.0
17/05:00am 29.8 28.4 16.6 45 8.3 NNE 19 22 10 12 1012.0 1011.1 0.0
17/04:30am 30.0 28.7 16.8 45 8.3 NNE 19 24 10 13 1011.6 1010.7 0.0
17/04:00am 30.5 29.1 16.9 44 8.6 NNE 20 26 11 14 1011.4 1010.5 0.0
17/03:30am 30.8 29.4 17.1 43 8.7 NNE 20 24 11 13 1011.3 1010.4 0.0
17/03:00am 31.0 30.1 17.7 45 8.5 NNE 19 26 10 14 1011.3 1010.4 0.0
17/02:30am 29.5 29.8 18.0 50 7.4 NE 13 17 7 9 1011.3 1010.4 0.0
17/02:00am 29.0 29.4 17.2 49 7.5 NNE 11 13 6 7 1011.4 1010.5 0.0
17/01:30am 29.9 30.4 17.4 47 8.0 NE 11 13 6 7 1011.5 1010.6 0.0
17/01:00am 30.8 30.6 17.5 45 8.5 NE 15 17 8 9 1011.5 1010.6 0.0
17/12:30am 31.7 31.5 17.6 43 9.1 NE 15 20 8 11 1011.6 1010.7 0.0
17/12:00am 32.2 31.7 17.7 42 9.3 NE 17 20 9 11 1011.6 1010.7 0.0
 
Date/Time
EDT
Temp
°C
App
Temp
°C
Dew
Point
°C
Rel
Hum
%
Delta-T
°C
Wind Press
QNH
hPa
Press
MSL
hPa
Rain since
9am
mm
Dir  Spd
km/h
Gust
km/h
Spd
kts
Gust
kts
16/11:30pm 32.9 31.9 17.5 39 9.9 NE 19 24 10 13 1011.6 1010.7 0.0
16/11:00pm 32.9 33.0 17.5 39 9.9 ENE 13 19 7 10 1011.4 1010.5 0.0
16/10:30pm 33.3 33.4 17.5 39 10.2 ENE 13 17 7 9 1011.2 1010.3 0.0
16/10:00pm 33.9 33.9 17.2 37 10.7 ENE 13 19 7 10 1011.1 1010.2 0.0
16/09:30pm 34.5 34.2 17.3 36 11.1 ENE 15 20 8 11 1010.8 1009.9 0.0
16/09:00pm 34.8 34.6 16.6 33 11.6 ENE 13 19 7 10 1010.6 1009.7 0.0
16/08:30pm 35.7 34.8 16.9 32 12.1 ENE 17 24 9 13 1010.3 1009.4 0.0
16/08:00pm 36.5 34.9 16.6 30 12.8 ENE 20 26 11 14 1010.0 1009.1 0.0
16/07:30pm 37.5 35.9 15.9 28 13.8 ENE 19 28 10 15 1009.7 1008.8 0.0
16/07:00pm 38.0 36.7 15.7 26 14.2 ENE 17 20 9 11 1009.2 1008.4 0.0
16/06:30pm 37.8 36.4 15.6 27 14.1 ENE 17 26 9 14 1009.1 1008.3 0.0
16/06:00pm 39.0 36.9 14.7 23 15.4 E 19 26 10 14 1008.8 1008.0 0.0
16/05:30pm 38.3 37.2 15.4 25 14.6 ENE 15 22 8 12 1008.8 1008.0 0.0
16/05:00pm 38.6 38.0 15.7 26 14.7 E 13 20 7 11 1008.9 1008.1 0.0
16/04:30pm 39.3 38.9 16.2 25 14.9 ENE 13 24 7 13 1009.2 1008.4 0.0
16/04:00pm 37.6 36.7 14.8 25 14.4 N 13 19 7 10 1009.6 1008.7 0.0
16/03:30pm 38.4 38.0 16.1 27 14.3 NE 13 22 7 12 1009.9 1009.0 0.0
16/03:00pm 37.8 37.0 17.2 29 13.4 NE 17 26 9 14 1010.2 1009.3 0.0
16/02:30pm 36.2 36.7 17.4 33 12.2 NNE 11 22 6 12 1010.6 1009.7 0.0
16/02:00pm 35.9 35.3 18.5 36 11.5 ENE 19 30 10 16 1011.0 1010.1 0.0
16/01:30pm 35.6 35.9 18.7 37 11.1 ENE 15 28 8 15 1011.3 1010.4 0.0
16/01:00pm 34.7 34.6 18.7 38 10.5 NE 17 28 9 15 1011.7 1010.8 0.0
16/12:30pm 34.7 34.8 19.1 39 10.3 NE 17 30 9 16 1012.0 1011.1 0.0
16/12:00pm 34.4 34.1 19.2 40 10.1 NE 19 28 10 15 1012.4 1011.6 0.0
16/11:30am 33.1 32.3 19.2 43 9.2 NE 22 35 12 19 1012.7 1011.9 0.0
16/11:00am 31.6 30.5 18.6 46 8.5 NE 22 35 12 19 1012.9 1012.1 0.0
16/10:30am 31.6 30.8 19.2 47 8.1 NE 22 32 12 17 1013.1 1012.3 0.0
16/10:00am 30.7 29.1 19.1 50 7.6 NE 26 41 14 22 1013.1 1012.3 0.0
16/09:30am 29.7 27.9 18.8 52 7.1 NE 26 37 14 20 1013.4 1012.6 0.0
16/09:00am 29.3 26.7 18.7 52 6.9 NE 30 41 16 22 1013.4 1012.6 0.0
16/08:30am 28.1 25.8 18.5 56 6.2 ENE 28 43 15 23 1013.2 1012.4 0.0
16/08:00am 27.4 26.3 18.7 59 5.6 ENE 22 32 12 17 1012.8 1012.0 0.0
16/07:30am 26.3 25.0 18.2 61 5.2 ENE 22 30 12 16 1012.6 1011.8 0.0
16/07:00am 25.6 24.9 18.3 64 4.6 ENE 19 26 10 14 1012.5 1011.7 0.0
16/06:30am 25.7 24.4 18.1 63 4.8 ENE 22 32 12 17 1012.1 1011.2 0.0
16/06:00am 26.1 25.4 18.2 61 5.0 ENE 19 24 10 13 1011.6 1010.7 0.0
16/05:30am 26.5 25.7 18.4 61 5.2 ENE 20 28 11 15 1011.2 1010.3 0.0
16/05:00am 26.9 25.7 18.5 60 5.4 ENE 22 30 12 16 1010.8 1009.9 0.0
16/04:30am 27.2 25.7 18.5 59 5.6 ENE 24 33 13 18 1010.5 1009.6 0.0
16/04:00am 27.7 25.4 18.4 57 6.0 ENE 28 37 15 20 1010.4 1009.5 0.0
16/03:30am 27.9 26.4 18.6 57 6.0 ENE 24 33 13 18 1010.5 1009.6 0.0
16/03:00am 28.4 28.0 18.8 56 6.2 E 19 32 10 17 1010.4 1009.5 0.0
16/02:30am 28.2 26.7 16.8 50 7.2 E 20 32 11 17 1010.4 1009.5 0.0
16/02:00am 28.3 26.7 16.6 49 7.3 ESE 20 32 11 17 1010.6 1009.7 0.0
16/01:30am 28.7 27.3 16.6 48 7.6 ESE 19 28 10 15 1010.7 1009.8 0.0
16/01:00am 29.3 27.1 16.8 47 7.9 ESE 24 35 13 19 1010.7 1009.8 0.0
16/12:30am 29.9 26.9 16.7 45 8.3 ESE 28 41 15 22 1010.5 1009.6 0.0
16/12:00am 30.4 27.2 16.4 43 8.8 ESE 28 43 15 23 1010.4 1009.5 0.0
 
Date/Time
EDT
Temp
°C
App
Temp
°C
Dew
Point
°C
Rel
Hum
%
Delta-T
°C
Wind Press
QNH
hPa
Press
MSL
hPa
Rain since
9am
mm
Dir  Spd
km/h
Gust
km/h
Spd
kts
Gust
kts
15/11:30pm 31.3 28.3 16.9 42 9.1 ESE 28 48 15 26 1010.3 1009.4 0.0
15/11:23pm 31.5 28.4 16.6 40 9.4 SE 28 48 15 26 1010.3 1009.4 0.0
15/11:00pm 32.0 28.6 16.7 40 9.7 SE 30 46 16 25 1010.1 1009.2 0.0
15/10:57pm 32.0 29.0 16.7 40 9.7 SE 28 46 15 25 1010.0 1009.1 0.0
15/10:30pm 32.5 29.1 15.9 36 10.4 SSE 28 35 15 19 1009.5 1008.6 0.0
15/10:00pm 32.4 29.2 13.1 31 11.7 S 22 30 12 16 1009.0 1008.2 0.0
15/09:30pm 32.9 28.9 9.0 23 13.6 SSW 20 26 11 14 1008.7 1007.9 0.0
15/09:00pm 33.6 30.2 9.0 22 14.0 SSW 17 22 9 12 1008.1 1007.3 0.0
15/08:30pm 34.5 30.5 8.3 20 14.8 SSW 19 24 10 13 1007.6 1006.8 0.0
15/08:00pm 35.7 31.0 7.7 18 15.8 SSW 22 32 12 17 1007.2 1006.4 0.0
15/07:30pm 36.8 31.7 5.9 15 17.0 SSW 22 32 12 17 1006.8 1006.0 0.0
15/07:00pm 37.8 32.1 6.7 15 17.5 SSW 26 35 14 19 1006.5 1005.7 0.0
15/06:30pm 38.5 34.0 6.3 14 18.0 SSW 19 30 10 16 1006.3 1005.5 0.0
15/06:00pm 38.3 33.6 6.1 14 18.0 SSW 20 33 11 18 1006.4 1005.6 0.0
15/05:30pm 38.4 33.5 5.1 13 18.3 SW 20 35 11 19 1006.6 1005.8 0.0
15/05:00pm 38.4 34.4 5.1 13 18.3 SSW 15 30 8 16 1006.9 1006.1 0.0
15/04:30pm 38.9 34.1 5.5 13 18.5 S 20 32 11 17 1007.3 1006.5 0.0
15/04:00pm 37.9 33.7 5.8 14 17.8 S 17 28 9 15 1007.7 1006.9 0.0
15/03:30pm 38.9 34.9 6.6 14 18.2 SSW 17 33 9 18 1008.2 1007.4 0.0
15/03:00pm 37.1 33.5 5.2 14 17.4 SW 13 26 7 14 1008.5 1007.7 0.0
15/02:30pm 38.5 34.9 8.2 16 17.4 SSW 17 30 9 16 1008.9 1008.1 0.0
15/02:00pm 36.0 32.1 7.1 17 16.2 S 17 30 9 16 1009.1 1008.3 0.0
15/01:30pm 35.8 32.4 7.8 18 15.8 SSE 15 26 8 14 1009.3 1008.5 0.0
15/01:00pm 35.3 31.5 8.9 20 15.1 SSW 19 30 10 16 1009.8 1008.9 0.0
15/12:30pm 34.1 30.4 9.4 22 14.2 SSW 19 28 10 15 1010.0 1009.1 0.0
15/12:00pm 33.1 29.7 10.4 25 13.2 SSW 19 28 10 15 1010.3 1009.4 0.0
15/11:30am 32.3 29.5 11.5 28 12.2 S 17 24 9 13 1010.4 1009.5 0.0
15/11:00am 30.1 27.2 11.1 31 11.0 S 17 26 9 14 1010.6 1009.7 0.0
15/10:30am 29.7 26.3 11.2 31 10.7 S 20 28 11 15 1010.8 1009.9 0.0
15/10:00am 28.2 23.9 9.5 31 10.5 S 22 32 12 17 1010.8 1009.9 0.0
15/09:30am 27.2 22.6 8.1 30 10.4 S 22 28 12 15 1011.0 1010.1 0.0
15/09:00am 25.5 20.0 7.6 32 9.6 S 26 33 14 18 1010.9 1010.0 0.0
15/08:30am 24.1 18.2 7.3 34 8.8 S 28 35 15 19 1010.8 1009.9 0.0
15/08:00am 22.8 16.4 7.0 36 8.2 S 30 37 16 20 1010.8 1009.9 0.0
15/07:30am 21.5 17.0 7.0 39 7.5 SSW 20 32 11 17 1010.7 1009.8 0.0
15/07:00am 19.6 15.2 6.7 43 6.5 SSW 19 26 10 14 1010.3 1009.4 0.0
15/06:30am 18.3 14.6 6.2 45 6.0 SW 15 19 8 10 1010.5 1009.6 0.0
15/06:00am 19.2 15.5 6.3 43 6.5 SSW 15 19 8 10 1010.1 1009.2 0.0
15/05:30am 19.8 16.1 6.2 41 6.8 SSW 15 19 8 10 1009.8 1008.9 0.0
15/05:00am 20.2 16.4 5.8 39 7.2 S 15 20 8 11 1009.6 1008.7 0.0
15/04:30am 21.4 16.9 6.1 37 7.7 SSW 19 26 10 14 1009.3 1008.5 0.0
15/04:00am 21.5 16.7 5.8 36 7.9 SSW 20 28 11 15 1009.2 1008.4 0.0
15/03:30am 21.7 17.1 5.6 35 8.1 SSW 19 24 10 13 1009.2 1008.4 0.0
15/03:00am 22.0 17.2 5.8 35 8.2 S 20 28 11 15 1009.3 1008.5 0.0
15/02:30am 22.7 17.5 5.6 33 8.6 S 22 30 12 16 1009.5 1008.6 0.0
15/02:00am 23.3 17.7 5.2 31 9.1 S 24 30 13 16 1009.7 1008.8 0.0
15/01:30am 24.2 18.5 5.1 29 9.7 S 24 32 13 17 1009.9 1009.0 0.0
15/01:00am 24.8 19.0 4.5 27 10.2 SSW 24 33 13 18 1010.1 1009.2 0.0
15/12:30am 25.6 19.7 4.1 25 10.8 S 24 32 13 17 1010.0 1009.1 0.0
15/12:00am 26.4 19.7 3.6 23 11.4 S 28 37 15 20 1009.8 1008.9 0.0
 
Date/Time
EDT
Temp
°C
App
Temp
°C
Dew
Point
°C
Rel
Hum
%
Delta-T
°C
Wind Press
QNH
hPa
Press
MSL
hPa
Rain since
9am
mm
Dir  Spd
km/h
Gust
km/h
Spd
kts
Gust
kts
14/11:30pm 26.7 20.2 2.6 21 11.8 S 26 32 14 17 1009.5 1008.6 0.0
14/11:00pm 27.4 20.7 1.7 19 12.5 S 26 33 14 18 1009.2 1008.4 0.0
14/10:30pm 28.3 - - - - S 24 32 13 17 1008.7 1007.9 0.0
14/10:00pm 29.3 23.9 2.5 18 13.4 S 20 28 11 15 1008.2 1007.4 0.0
14/09:30pm 29.9 24.9 3.8 19 13.4 S 19 22 10 12 1007.8 1007.0 0.0
14/09:00pm 30.9 26.3 3.8 18 14.0 S 17 22 9 12 1007.4 1006.6 0.0
14/08:30pm 32.6 26.5 2.6 15 15.3 S 24 30 13 16 1006.8 1006.0 0.0
14/08:00pm 33.8 27.4 7.0 19 14.8 S 30 41 16 22 1006.1 1005.3 0.0
14/07:30pm 34.8 29.9 12.5 26 13.4 SSW 30 41 16 22 1005.4 1004.5 0.0
14/07:00pm 35.3 31.4 15.6 31 12.5 SSW 30 41 16 22 1004.7 1003.8 0.0
14/06:30pm 36.3 32.4 17.0 32 12.5 SSW 33 46 18 25 1004.0 1003.1 0.0
14/06:00pm 36.2 32.3 16.9 32 12.5 SSW 33 48 18 26 1003.4 1002.5 0.0
14/05:30pm 37.7 33.5 17.1 29 13.4 SSW 35 46 19 25 1003.0 1002.1 0.0
14/05:00pm 38.0 34.0 18.4 31 13.0 SSW 37 50 20 27 1003.0 1002.1 0.0
14/04:30pm 38.8 36.0 18.1 29 13.7 SSW 30 50 16 27 1003.2 1002.3 0.0
14/04:28pm 39.6 37.4 18.8 30 13.9 SSW 28 50 15 27 1003.2 1002.3 0.0
14/04:00pm 38.9 37.0 17.6 28 14.0 SSW 24 39 13 21 1004.0 1003.1 0.0
14/03:30pm 38.8 36.2 18.6 30 13.4 S 30 43 16 23 1004.5 1003.6 0.0
14/03:00pm 38.3 37.2 17.7 30 13.5 SSW 20 30 11 16 1004.7 1003.8 0.0
14/02:30pm 39.3 37.9 18.0 29 14.1 SSW 22 33 12 18 1004.9 1004.0 0.0
14/02:00pm 37.6 35.7 17.6 31 13.1 SSW 24 33 13 18 1005.2 1004.3 0.0
14/01:30pm 37.6 35.7 17.6 31 13.1 SSW 24 37 13 20 1005.4 1004.5 0.0
14/01:00pm 37.4 35.4 17.4 30 13.1 SSW 24 39 13 21 1005.8 1005.0 0.0
14/12:30pm 36.9 34.9 17.5 32 12.6 S 24 35 13 19 1005.9 1005.1 0.0
14/12:00pm 36.1 34.1 17.3 33 12.2 S 24 33 13 18 1005.8 1005.0 0.0
14/11:30am 36.0 33.7 16.7 31 12.4 S 24 33 13 18 1005.7 1004.9 0.0
14/11:00am 36.1 34.4 17.3 33 12.2 S 22 32 12 17 1005.9 1005.1 0.0
14/10:30am 34.8 33.4 17.1 35 11.4 S 20 28 11 15 1005.9 1005.1 0.0
14/10:00am 34.6 32.8 16.9 35 11.4 SSW 22 30 12 16 1006.0 1005.2 0.0
14/09:30am 35.0 32.9 17.2 34 11.5 S 24 33 13 18 1006.2 1005.4 0.0
14/09:00am 33.8 32.4 16.6 35 11.0 SSW 19 26 10 14 1006.2 1005.4 0.0

Other Formats:

Comma delimited format used in spreadsheet applications
http://www.bom.gov.au/fwo/IDN60801/IDN60801.95715.axf

JavaScript Object Notation format (JSON) in row-major order
http://www.bom.gov.au/fwo/IDN60801/IDN60801.95715.json